createdAt,value
2017-08-29T00:00:12.784Z,5.70
2017-08-29T00:02:39.224Z,6.00
2017-08-29T00:05:05.688Z,6.10
2017-08-29T00:07:32.144Z,6.70
2017-08-29T00:09:58.587Z,6.60
2017-08-29T00:12:25.051Z,6.23
2017-08-29T00:14:51.482Z,6.17
2017-08-29T00:17:17.914Z,6.37
2017-08-29T00:19:45.164Z,6.07
2017-08-29T00:22:11.616Z,6.60
2017-08-29T00:24:38.791Z,6.23
2017-08-29T00:27:05.248Z,6.47
2017-08-29T00:29:31.732Z,5.90
2017-08-29T00:31:58.941Z,7.30
2017-08-29T00:34:25.416Z,5.90
2017-08-29T00:36:51.951Z,6.17
2017-08-29T00:39:18.412Z,7.00
2017-08-29T00:41:44.886Z,6.67
2017-08-29T00:44:11.365Z,6.50
2017-08-29T00:46:37.895Z,6.00
2017-08-29T00:49:05.164Z,6.50
2017-08-29T00:51:31.623Z,5.93
2017-08-29T00:53:58.110Z,6.40
2017-08-29T00:56:24.635Z,6.00
2017-08-29T00:58:51.124Z,6.27
2017-08-29T01:01:17.552Z,5.10
2017-08-29T01:03:44.042Z,5.40
2017-08-29T01:06:10.480Z,5.50
2017-08-29T01:08:36.964Z,5.53
2017-08-29T01:11:03.680Z,6.20
2017-08-29T01:13:30.167Z,5.80
2017-08-29T01:15:56.679Z,6.30
2017-08-29T01:18:23.143Z,6.63
2017-08-29T01:20:49.683Z,7.10
2017-08-29T01:23:16.163Z,6.10
2017-08-29T01:25:42.689Z,5.37
2017-08-29T01:28:09.224Z,5.90
2017-08-29T01:30:35.711Z,5.60
2017-08-29T01:33:02.224Z,5.97
2017-08-29T01:35:28.767Z,5.70
2017-08-29T01:37:55.237Z,6.60
2017-08-29T01:40:21.717Z,7.37
2017-08-29T01:42:48.227Z,6.27
2017-08-29T01:45:14.801Z,6.30
2017-08-29T01:47:41.318Z,5.93
2017-08-29T01:50:07.844Z,6.77
2017-08-29T01:52:34.306Z,5.77
2017-08-29T01:55:00.806Z,6.40
2017-08-29T01:57:27.327Z,5.60
2017-08-29T01:59:53.822Z,6.53
2017-08-29T02:02:20.310Z,5.63
2017-08-29T02:04:46.809Z,6.30
2017-08-29T02:07:13.311Z,5.40
2017-08-29T02:09:39.774Z,6.63
2017-08-29T02:12:06.286Z,7.50
2017-08-29T02:14:32.721Z,5.40
2017-08-29T02:16:59.155Z,5.30
2017-08-29T02:19:25.613Z,5.00
2017-08-29T02:21:52.064Z,5.57
2017-08-29T02:24:18.494Z,5.33
2017-08-29T02:26:44.968Z,5.50
2017-08-29T02:29:11.452Z,5.20
2017-08-29T02:31:37.894Z,5.63
2017-08-29T02:34:05.072Z,5.50
2017-08-29T02:36:31.563Z,5.13
2017-08-29T02:38:58.031Z,5.53
2017-08-29T02:41:24.472Z,6.23
2017-08-29T02:43:50.948Z,6.43
2017-08-29T02:46:17.396Z,5.17
2017-08-29T02:48:43.844Z,5.67
2017-08-29T02:51:10.362Z,5.80
2017-08-29T02:53:36.832Z,6.70
2017-08-29T02:56:03.301Z,6.10
2017-08-29T02:58:29.728Z,7.10
2017-08-29T03:00:56.188Z,6.50
2017-08-29T03:03:22.661Z,7.10
2017-08-29T03:05:49.101Z,6.70
2017-08-29T03:08:15.531Z,6.37
2017-08-29T03:10:41.985Z,6.43
2017-08-29T03:13:08.478Z,5.97
2017-08-29T03:15:34.983Z,7.10
2017-08-29T03:18:01.427Z,4.90
2017-08-29T03:20:27.859Z,5.80
2017-08-29T03:22:54.323Z,6.30
2017-08-29T03:25:20.754Z,5.30
2017-08-29T03:27:47.238Z,6.20
2017-08-29T03:30:13.705Z,5.80
2017-08-29T03:32:40.171Z,5.87
2017-08-29T03:35:06.642Z,5.40
2017-08-29T03:37:33.097Z,5.80
2017-08-29T03:39:59.586Z,7.07
2017-08-29T03:42:26.021Z,6.33
2017-08-29T03:44:52.444Z,5.50
2017-08-29T03:47:18.919Z,5.83
2017-08-29T03:49:45.380Z,7.20
2017-08-29T03:52:11.939Z,6.93
2017-08-29T03:54:38.434Z,7.10
2017-08-29T03:57:04.915Z,7.10
2017-08-29T03:59:31.370Z,6.43
2017-08-29T04:01:57.889Z,6.63
2017-08-29T04:04:24.366Z,6.23
2017-08-29T04:06:50.823Z,6.70
2017-08-29T04:09:17.307Z,6.03
2017-08-29T04:11:43.737Z,6.10
2017-08-29T04:14:10.194Z,6.60
2017-08-29T04:16:36.661Z,6.40
2017-08-29T04:19:03.094Z,5.47
2017-08-29T04:21:30.164Z,5.40
2017-08-29T04:23:56.624Z,6.67
2017-08-29T04:26:23.086Z,6.23
2017-08-29T04:28:49.538Z,6.80
2017-08-29T04:31:15.993Z,7.17
2017-08-29T04:33:42.433Z,6.40
2017-08-29T04:36:08.894Z,7.63
2017-08-29T04:38:35.344Z,6.40
2017-08-29T04:41:01.843Z,6.67
2017-08-29T04:43:28.257Z,7.40
2017-08-29T04:45:54.712Z,6.77
2017-08-29T04:48:21.180Z,7.50
2017-08-29T04:50:47.637Z,7.80
2017-08-29T04:53:14.110Z,7.00
2017-08-29T04:55:40.581Z,7.57
2017-08-29T04:58:07.104Z,7.43
2017-08-29T05:00:34.501Z,6.90
2017-08-29T05:03:01.006Z,7.57
2017-08-29T05:05:27.628Z,6.70
2017-08-29T05:07:54.083Z,7.63
2017-08-29T05:10:20.626Z,7.83
2017-08-29T05:12:47.102Z,8.00
2017-08-29T05:15:13.582Z,7.70
2017-08-29T05:17:40.060Z,6.90
2017-08-29T05:20:06.818Z,8.60
2017-08-29T05:22:33.270Z,7.63
2017-08-29T05:24:59.823Z,6.67
2017-08-29T05:27:26.296Z,6.50
2017-08-29T05:29:52.783Z,8.23
2017-08-29T05:32:19.685Z,8.27
2017-08-29T05:34:46.168Z,7.60
2017-08-29T05:37:12.654Z,8.30
2017-08-29T05:39:39.195Z,8.73
2017-08-29T05:42:05.696Z,6.40
2017-08-29T05:44:32.157Z,7.00
2017-08-29T05:46:58.647Z,6.83
2017-08-29T05:49:25.175Z,7.87
2017-08-29T05:51:51.660Z,8.20
2017-08-29T05:54:18.125Z,8.13
2017-08-29T05:56:44.607Z,8.67
2017-08-29T05:59:11.838Z,9.33
2017-08-29T06:01:38.334Z,8.80
2017-08-29T06:04:04.844Z,9.27
2017-08-29T06:06:31.325Z,8.90
2017-08-29T06:08:57.823Z,8.97
2017-08-29T06:11:24.397Z,8.90
2017-08-29T06:13:50.868Z,9.03
2017-08-29T06:16:17.379Z,9.07
2017-08-29T06:18:43.885Z,10.17
2017-08-29T06:21:10.351Z,8.00
2017-08-29T06:23:36.814Z,10.13
2017-08-29T06:26:03.273Z,8.10
2017-08-29T06:28:29.716Z,8.03
2017-08-29T06:30:56.236Z,8.33
2017-08-29T06:33:22.711Z,8.40
2017-08-29T06:35:49.157Z,7.90
2017-08-29T06:38:15.613Z,8.27
2017-08-29T06:40:48.384Z,7.03
2017-08-29T06:43:14.896Z,7.40
2017-08-29T06:45:41.367Z,7.53
2017-08-29T06:48:07.806Z,7.57
2017-08-29T06:50:34.250Z,6.77
2017-08-29T06:53:00.716Z,6.30
2017-08-29T06:55:27.185Z,6.80
2017-08-29T06:57:53.618Z,6.87
2017-08-29T07:00:20.084Z,6.70
2017-08-29T07:02:46.531Z,6.70
2017-08-29T07:05:12.993Z,6.83
2017-08-29T07:07:39.430Z,7.40
2017-08-29T07:10:05.885Z,7.30
2017-08-29T07:12:32.392Z,6.27
2017-08-29T07:14:58.856Z,5.90
2017-08-29T07:17:25.385Z,6.20
2017-08-29T07:19:51.852Z,6.50
2017-08-29T07:22:18.272Z,6.73
2017-08-29T07:24:44.819Z,6.60
2017-08-29T07:27:11.301Z,7.37
2017-08-29T07:29:37.767Z,5.63
2017-08-29T07:32:04.300Z,5.60
2017-08-29T07:34:30.787Z,6.20
2017-08-29T07:36:57.301Z,5.80
2017-08-29T07:39:23.773Z,5.97
2017-08-29T07:41:50.245Z,5.30
2017-08-29T07:44:16.722Z,5.20
2017-08-29T07:46:43.194Z,5.50
2017-08-29T07:49:09.681Z,4.13
2017-08-29T07:51:36.123Z,5.00
2017-08-29T07:54:02.583Z,4.27
2017-08-29T07:56:29.055Z,4.33
2017-08-29T07:58:55.503Z,5.00
2017-08-29T08:01:21.963Z,5.50
2017-08-29T08:03:48.417Z,4.80
2017-08-29T08:06:14.852Z,5.43
2017-08-29T08:08:41.298Z,5.07
2017-08-29T08:11:07.758Z,4.43
2017-08-29T08:13:34.250Z,5.20
2017-08-29T08:16:00.733Z,4.70
2017-08-29T08:18:27.184Z,4.33
2017-08-29T08:20:53.656Z,4.20
2017-08-29T08:23:20.200Z,4.60
2017-08-29T08:25:46.765Z,3.63
2017-08-29T08:28:13.265Z,3.97
2017-08-29T08:30:39.739Z,3.90
2017-08-29T08:33:06.178Z,3.80
2017-08-29T08:35:32.652Z,4.30
2017-08-29T08:37:59.108Z,3.87
2017-08-29T08:40:25.544Z,3.90
2017-08-29T08:42:52.012Z,3.50
2017-08-29T08:45:18.476Z,4.07
2017-08-29T08:47:44.912Z,3.53
2017-08-29T08:50:11.362Z,3.13
2017-08-29T08:52:37.850Z,3.83
2017-08-29T08:55:04.309Z,2.70
2017-08-29T08:57:30.760Z,3.00
2017-08-29T08:59:57.220Z,3.20
2017-08-29T09:02:23.684Z,2.80
2017-08-29T09:04:50.188Z,3.60
2017-08-29T09:07:16.705Z,2.90
2017-08-29T09:09:43.175Z,3.17
2017-08-29T09:12:09.661Z,2.87
2017-08-29T09:14:36.099Z,2.87
2017-08-29T09:17:02.612Z,2.77
2017-08-29T09:19:29.064Z,2.97
2017-08-29T09:21:55.590Z,2.63
2017-08-29T09:24:22.066Z,3.40
2017-08-29T09:26:48.516Z,2.80
2017-08-29T09:29:14.962Z,2.90
2017-08-29T09:31:41.471Z,2.80
2017-08-29T09:34:07.936Z,2.23
2017-08-29T09:36:34.421Z,2.30
2017-08-29T09:39:00.888Z,2.40
2017-08-29T09:41:27.355Z,2.40
2017-08-29T09:43:54.177Z,2.93
2017-08-29T09:46:21.610Z,2.50
2017-08-29T09:48:48.048Z,2.70
2017-08-29T09:51:15.249Z,2.80
2017-08-29T09:53:41.754Z,2.27
2017-08-29T09:56:08.237Z,2.80
2017-08-29T09:58:34.719Z,2.77
2017-08-29T10:01:01.163Z,2.30
2017-08-29T10:03:27.620Z,2.50
2017-08-29T10:05:54.084Z,2.43
2017-08-29T10:08:20.564Z,2.33
2017-08-29T10:10:47.042Z,2.00
2017-08-29T10:13:13.499Z,2.63
2017-08-29T10:15:40.752Z,2.30
2017-08-29T10:18:07.243Z,2.40
2017-08-29T10:20:33.762Z,2.53
2017-08-29T10:23:00.220Z,2.53
2017-08-29T10:25:26.672Z,2.40
2017-08-29T10:27:54.038Z,2.30
2017-08-29T10:30:20.595Z,2.23
2017-08-29T10:32:47.085Z,1.80
2017-08-29T10:35:13.548Z,2.07
2017-08-29T10:37:40.035Z,2.33
2017-08-29T10:40:06.504Z,2.50
2017-08-29T10:42:32.951Z,1.80
2017-08-29T10:44:59.412Z,2.20
2017-08-29T10:47:25.894Z,2.10
2017-08-29T10:49:52.368Z,1.53
2017-08-29T10:52:18.846Z,2.40
2017-08-29T10:54:45.347Z,2.30
2017-08-29T10:57:11.800Z,2.00
2017-08-29T10:59:38.300Z,1.80
2017-08-29T11:02:04.758Z,1.90
2017-08-29T11:04:31.241Z,1.67
2017-08-29T11:06:57.698Z,2.20
2017-08-29T11:09:24.181Z,2.30
2017-08-29T11:11:50.628Z,2.60
2017-08-29T11:14:17.091Z,2.23
2017-08-29T11:16:43.551Z,2.00
2017-08-29T11:19:10.070Z,2.10
2017-08-29T11:21:36.559Z,2.20
2017-08-29T11:24:03.099Z,2.20
2017-08-29T11:26:29.607Z,2.07
2017-08-29T11:28:56.117Z,2.30
2017-08-29T11:31:22.588Z,2.10
2017-08-29T11:33:49.091Z,2.57
2017-08-29T11:36:15.584Z,1.77
2017-08-29T11:38:57.018Z,1.80
2017-08-29T11:41:23.533Z,2.13
2017-08-29T11:43:50.080Z,2.37
2017-08-29T11:46:16.567Z,1.90
2017-08-29T11:48:43.096Z,2.10
2017-08-29T11:51:09.579Z,2.07
2017-08-29T11:53:36.087Z,2.13
2017-08-29T11:56:02.620Z,2.20
2017-08-29T11:58:29.134Z,2.10
2017-08-29T12:00:55.628Z,1.93
2017-08-29T12:03:22.147Z,2.67
2017-08-29T12:05:48.632Z,2.13
2017-08-29T12:08:15.133Z,1.80
2017-08-29T12:10:41.654Z,1.87
2017-08-29T12:13:08.118Z,2.03
2017-08-29T12:15:34.626Z,1.80
2017-08-29T12:18:01.093Z,2.00
2017-08-29T12:20:27.589Z,2.10
2017-08-29T12:22:54.052Z,1.87
2017-08-29T12:25:20.495Z,1.70
2017-08-29T12:27:46.932Z,1.87
2017-08-29T12:30:13.403Z,1.57
2017-08-29T12:32:39.839Z,1.73
2017-08-29T12:35:06.296Z,2.00
2017-08-29T12:37:32.750Z,2.00
2017-08-29T12:39:59.192Z,1.97
2017-08-29T12:42:44.210Z,2.43
2017-08-29T12:45:53.452Z,1.83
2017-08-29T12:48:28.582Z,2.17
2017-08-29T12:50:58.184Z,1.93
2017-08-29T12:53:39.444Z,2.07
2017-08-29T12:56:10.865Z,2.13
2017-08-29T12:58:42.443Z,1.70
2017-08-29T13:03:47.483Z,2.33
2017-08-29T13:06:14.058Z,2.20
2017-08-29T13:08:40.522Z,2.27
2017-08-29T13:11:06.963Z,2.10
2017-08-29T13:13:33.673Z,1.57
2017-08-29T13:16:04.383Z,2.23
2017-08-29T13:18:35.475Z,2.10
2017-08-29T13:21:03.603Z,2.57
2017-08-29T13:23:31.126Z,2.17
2017-08-29T13:26:04.067Z,2.07
2017-08-29T13:28:40.339Z,2.03
2017-08-29T13:31:25.076Z,2.03
2017-08-29T13:33:51.526Z,2.20
2017-08-29T13:39:11.438Z,1.90
2017-08-29T13:41:37.891Z,2.10
2017-08-29T13:44:04.335Z,2.27
2017-08-29T13:46:33.809Z,2.00
2017-08-29T13:49:00.265Z,1.93
2017-08-29T13:51:26.710Z,2.30
2017-08-29T13:53:53.192Z,2.10
2017-08-29T13:56:19.640Z,1.93
2017-08-29T13:58:46.082Z,2.20
2017-08-29T14:01:18.655Z,1.90
2017-08-29T14:03:45.122Z,1.90
2017-08-29T14:06:11.759Z,2.03
2017-08-29T14:08:38.226Z,1.80
2017-08-29T14:11:04.693Z,2.57
2017-08-29T14:13:31.121Z,2.40
2017-08-29T14:15:57.557Z,1.93
2017-08-29T14:18:24.012Z,2.53
2017-08-29T14:20:50.455Z,2.20
2017-08-29T14:23:16.929Z,2.10
2017-08-29T14:25:43.379Z,1.93
2017-08-29T14:28:09.812Z,2.57
2017-08-29T14:30:36.300Z,1.90
2017-08-29T14:33:02.763Z,2.23
2017-08-29T14:35:29.213Z,2.20
2017-08-29T14:37:55.671Z,2.40
2017-08-29T14:40:22.131Z,2.20
2017-08-29T14:42:48.597Z,2.23
2017-08-29T14:45:15.048Z,1.90
2017-08-29T14:47:53.832Z,2.73
2017-08-29T14:50:20.282Z,2.17
2017-08-29T14:52:46.722Z,2.03
2017-08-29T14:55:13.171Z,2.40
2017-08-29T14:57:39.671Z,2.27
2017-08-29T15:00:06.105Z,2.50
2017-08-29T15:02:32.521Z,2.60
2017-08-29T15:04:58.954Z,2.50
2017-08-29T15:07:25.396Z,2.70
2017-08-29T15:09:51.811Z,2.00
2017-08-29T15:12:18.300Z,2.13
2017-08-29T15:14:44.740Z,2.00
2017-08-29T15:17:11.276Z,2.03
2017-08-29T15:19:37.742Z,2.40
2017-08-29T15:22:04.937Z,1.90
2017-08-29T15:24:31.386Z,2.30
2017-08-29T15:26:57.836Z,2.10
2017-08-29T15:29:24.261Z,2.37
2017-08-29T15:31:50.728Z,2.07
2017-08-29T15:34:17.188Z,2.90
2017-08-29T15:36:43.626Z,1.97
2017-08-29T15:39:10.080Z,2.40
2017-08-29T15:41:36.536Z,2.60
2017-08-29T15:44:02.993Z,2.10
2017-08-29T15:46:29.444Z,2.10
2017-08-29T15:48:55.868Z,2.83
2017-08-29T15:51:22.331Z,2.60
2017-08-29T15:53:48.781Z,2.00
2017-08-29T15:56:15.221Z,2.13
2017-08-29T15:58:41.675Z,2.27
2017-08-29T16:01:08.127Z,1.90
2017-08-29T16:03:34.563Z,2.23
2017-08-29T16:06:01.046Z,14.00
2017-08-29T16:08:27.501Z,2.07
2017-08-29T16:10:53.950Z,2.77
2017-08-29T16:13:20.407Z,2.00
2017-08-29T16:15:46.882Z,1.73
2017-08-29T16:18:13.362Z,2.63
2017-08-29T16:20:39.820Z,2.30
2017-08-29T16:23:06.267Z,2.20
2017-08-29T16:25:32.727Z,2.10
2017-08-29T16:27:59.209Z,2.30
2017-08-29T16:30:25.688Z,2.00
2017-08-29T16:32:52.222Z,2.00
2017-08-29T16:35:18.693Z,2.27
2017-08-29T16:37:45.154Z,2.60
2017-08-29T16:40:11.638Z,2.40
2017-08-29T16:42:38.071Z,2.80
2017-08-29T16:45:04.522Z,3.00
2017-08-29T16:47:30.990Z,2.70
2017-08-29T16:49:57.437Z,2.30
2017-08-29T16:52:23.876Z,2.60
2017-08-29T16:54:50.327Z,1.77
2017-08-29T16:57:16.767Z,3.10
2017-08-29T16:59:43.228Z,2.67
2017-08-29T17:02:09.682Z,2.23
2017-08-29T17:04:36.119Z,2.83
2017-08-29T17:07:03.302Z,8.20
2017-08-29T17:09:29.777Z,3.27
2017-08-29T17:12:03.255Z,6.70
2017-08-29T17:14:29.719Z,2.13
2017-08-29T17:16:56.149Z,2.20
2017-08-29T17:19:22.614Z,2.40
2017-08-29T17:21:49.052Z,2.40
2017-08-29T17:24:15.563Z,2.23
2017-08-29T17:26:42.004Z,2.90
2017-08-29T17:29:08.502Z,2.07
2017-08-29T17:31:34.922Z,2.33
2017-08-29T17:34:01.372Z,2.33
2017-08-29T17:36:27.821Z,2.20
2017-08-29T17:38:54.280Z,2.23
2017-08-29T17:41:20.730Z,2.37
2017-08-29T17:43:47.452Z,2.90
2017-08-29T17:46:13.934Z,2.70
2017-08-29T17:48:40.467Z,3.00
2017-08-29T17:51:06.948Z,2.40
2017-08-29T17:53:34.155Z,2.20
2017-08-29T17:56:00.571Z,2.57
2017-08-29T17:58:27.022Z,3.00
2017-08-29T18:00:53.457Z,2.30
2017-08-29T18:03:19.897Z,3.37
2017-08-29T18:05:46.372Z,2.50
2017-08-29T18:08:12.821Z,2.47
2017-08-29T18:10:39.308Z,2.20
2017-08-29T18:13:05.755Z,2.20
2017-08-29T18:15:32.211Z,2.97
2017-08-29T18:17:58.850Z,2.27
2017-08-29T18:20:25.379Z,2.47
2017-08-29T18:22:51.923Z,2.10
2017-08-29T18:25:18.405Z,2.70
2017-08-29T18:27:44.938Z,2.60
2017-08-29T18:30:11.434Z,2.63
2017-08-29T18:32:37.927Z,2.97
2017-08-29T18:35:04.491Z,2.57
2017-08-29T18:37:31.001Z,2.93
2017-08-29T18:39:57.558Z,2.57
2017-08-29T18:42:24.028Z,2.57
2017-08-29T18:44:50.508Z,3.00
2017-08-29T18:47:16.959Z,2.83
2017-08-29T18:49:43.440Z,2.27
2017-08-29T18:52:09.969Z,2.43
2017-08-29T18:54:36.428Z,2.77
2017-08-29T18:57:02.937Z,2.40
2017-08-29T18:59:29.455Z,2.60
2017-08-29T19:01:55.883Z,2.37
2017-08-29T19:04:22.389Z,2.43
2017-08-29T19:06:48.862Z,3.63
2017-08-29T19:09:15.338Z,3.17
2017-08-29T19:11:41.831Z,2.90
2017-08-29T19:14:08.406Z,2.70
2017-08-29T19:16:34.927Z,2.63
2017-08-29T19:19:01.493Z,2.90
2017-08-29T19:21:27.964Z,2.53
2017-08-29T19:23:54.408Z,2.50
2017-08-29T19:26:20.852Z,2.20
2017-08-29T19:28:47.318Z,2.40
2017-08-29T19:31:13.843Z,2.90
2017-08-29T19:33:40.295Z,3.03
2017-08-29T19:36:06.888Z,3.00
2017-08-29T19:38:33.385Z,3.67
2017-08-29T19:41:00.610Z,2.70
2017-08-29T19:43:27.182Z,2.50
2017-08-29T19:45:54.367Z,2.90
2017-08-29T19:48:20.834Z,2.70
2017-08-29T19:50:47.261Z,3.60
2017-08-29T19:53:13.714Z,3.13
2017-08-29T19:55:40.179Z,3.90
2017-08-29T19:58:06.657Z,3.50
2017-08-29T20:00:33.267Z,4.20
2017-08-29T20:02:59.731Z,4.13
2017-08-29T20:05:26.196Z,3.30
2017-08-29T20:07:53.086Z,3.07
2017-08-29T20:10:19.527Z,3.60
2017-08-29T20:12:46.025Z,3.10
2017-08-29T20:15:12.558Z,3.17
2017-08-29T20:17:38.996Z,3.50
2017-08-29T20:20:05.498Z,3.70
2017-08-29T20:22:31.975Z,3.27
2017-08-29T20:24:58.432Z,3.50
2017-08-29T20:27:24.949Z,3.90
2017-08-29T20:29:51.396Z,3.60
2017-08-29T20:32:17.844Z,3.00
2017-08-29T20:34:44.279Z,3.10
2017-08-29T20:37:10.720Z,3.27
2017-08-29T20:39:37.189Z,3.50
2017-08-29T20:42:03.826Z,3.23
2017-08-29T20:44:30.390Z,3.40
2017-08-29T20:46:56.871Z,3.43
2017-08-29T20:49:23.333Z,3.63
2017-08-29T20:51:49.755Z,4.30
2017-08-29T20:54:16.205Z,3.53
2017-08-29T20:56:42.767Z,3.70
2017-08-29T20:59:09.222Z,3.63
2017-08-29T21:01:35.656Z,3.73
2017-08-29T21:04:02.179Z,4.70
2017-08-29T21:06:28.623Z,3.97
2017-08-29T21:08:55.093Z,3.77
2017-08-29T21:11:21.776Z,3.37
2017-08-29T21:13:49.966Z,3.70
2017-08-29T21:16:16.465Z,3.97
2017-08-29T21:18:42.995Z,3.63
2017-08-29T21:21:09.467Z,3.40
2017-08-29T21:23:35.921Z,4.17
2017-08-29T21:26:03.448Z,4.73
2017-08-29T21:28:30.289Z,4.00
2017-08-29T21:30:58.534Z,3.67
2017-08-29T21:33:24.973Z,3.87
2017-08-29T21:35:51.432Z,3.60
2017-08-29T21:38:17.887Z,3.37
2017-08-29T21:40:44.348Z,4.50
2017-08-29T21:43:10.839Z,4.00
2017-08-29T21:45:37.296Z,4.00
2017-08-29T21:48:03.739Z,3.53
2017-08-29T21:50:30.184Z,3.60
2017-08-29T21:52:56.632Z,3.80
2017-08-29T21:55:23.072Z,4.20
2017-08-29T21:57:49.540Z,4.10
2017-08-29T22:00:16.047Z,3.83
2017-08-29T22:02:42.536Z,4.30
2017-08-29T22:05:08.988Z,4.40
2017-08-29T22:07:35.482Z,4.40
2017-08-29T22:10:01.949Z,4.70
2017-08-29T22:12:28.411Z,4.20
2017-08-29T22:14:55.014Z,4.00
2017-08-29T22:17:21.458Z,4.83
2017-08-29T22:19:47.902Z,4.60
2017-08-29T22:22:14.545Z,4.53
2017-08-29T22:24:40.981Z,4.20
2017-08-29T22:27:07.481Z,5.20
2017-08-29T22:29:33.957Z,4.13
2017-08-29T22:32:00.402Z,4.37
2017-08-29T22:34:26.849Z,3.90
2017-08-29T22:36:53.298Z,4.17
2017-08-29T22:39:19.748Z,3.70
2017-08-29T22:41:46.196Z,4.30
2017-08-29T22:44:12.662Z,3.93
2017-08-29T22:46:39.163Z,3.93
2017-08-29T22:49:05.654Z,4.43
2017-08-29T22:51:32.134Z,3.93
2017-08-29T22:53:58.600Z,4.27
2017-08-29T22:56:25.041Z,4.37
2017-08-29T22:58:51.492Z,3.97
2017-08-29T23:01:17.972Z,4.20
2017-08-29T23:03:44.445Z,3.87
2017-08-29T23:06:10.925Z,4.03
2017-08-29T23:08:37.373Z,4.47
2017-08-29T23:11:03.865Z,4.57
2017-08-29T23:13:30.344Z,4.10
2017-08-29T23:15:56.800Z,4.57
2017-08-29T23:18:23.257Z,4.13
2017-08-29T23:20:49.697Z,4.10
2017-08-29T23:23:16.157Z,4.23
2017-08-29T23:25:42.708Z,4.17
2017-08-29T23:28:09.175Z,3.57
2017-08-29T23:30:36.409Z,3.80
2017-08-29T23:33:02.864Z,4.20
2017-08-29T23:35:30.063Z,4.60
2017-08-29T23:37:56.738Z,4.27
2017-08-29T23:40:23.208Z,3.90
2017-08-29T23:42:49.677Z,3.40
2017-08-29T23:45:16.116Z,3.80
2017-08-29T23:47:42.613Z,3.90
2017-08-29T23:50:09.056Z,3.80
2017-08-29T23:52:35.524Z,4.10
2017-08-29T23:55:01.972Z,4.23
2017-08-29T23:57:28.434Z,4.30
2017-08-29T23:59:55.646Z,3.80
